sensor_id;sensor_type;location;lat;lon;timestamp;temperature;humidity
814;DHT22;389;48.710;9.392;2022-12-18T00:01:23;-5.80;96.40
814;DHT22;389;48.710;9.392;2022-12-18T00:03:50;-5.80;96.40
814;DHT22;389;48.710;9.392;2022-12-18T00:06:17;-5.80;96.40
814;DHT22;389;48.710;9.392;2022-12-18T00:08:43;-5.80;96.40
814;DHT22;389;48.710;9.392;2022-12-18T00:11:12;-5.80;96.40
814;DHT22;389;48.710;9.392;2022-12-18T00:13:39;-5.80;96.40
814;DHT22;389;48.710;9.392;2022-12-18T00:16:07;-5.70;96.50
814;DHT22;389;48.710;9.392;2022-12-18T00:18:34;-5.70;96.80
814;DHT22;389;48.710;9.392;2022-12-18T00:21:06;-5.70;96.50
814;DHT22;389;48.710;9.392;2022-12-18T00:23:33;-5.70;96.50
814;DHT22;389;48.710;9.392;2022-12-18T00:26:04;-5.70;96.50
814;DHT22;389;48.710;9.392;2022-12-18T00:28:31;-5.60;96.60
814;DHT22;389;48.710;9.392;2022-12-18T00:31:08;-5.60;96.60
814;DHT22;389;48.710;9.392;2022-12-18T00:33:35;-5.70;96.50
814;DHT22;389;48.710;9.392;2022-12-18T00:36:06;-5.60;96.60
814;DHT22;389;48.710;9.392;2022-12-18T00:38:33;-5.70;96.50
814;DHT22;389;48.710;9.392;2022-12-18T00:40:58;-5.70;96.40
814;DHT22;389;48.710;9.392;2022-12-18T00:43:24;-5.70;96.40
814;DHT22;389;48.710;9.392;2022-12-18T00:45:50;-5.70;96.30
814;DHT22;389;48.710;9.392;2022-12-18T00:48:15;-5.70;96.30
814;DHT22;389;48.710;9.392;2022-12-18T00:50:41;-5.80;96.20
814;DHT22;389;48.710;9.392;2022-12-18T00:53:06;-5.80;96.10
814;DHT22;389;48.710;9.392;2022-12-18T00:55:32;-5.80;96.10
814;DHT22;389;48.710;9.392;2022-12-18T00:57:57;-5.80;96.10
814;DHT22;389;48.710;9.392;2022-12-18T01:00:32;-5.90;96.10
814;DHT22;389;48.710;9.392;2022-12-18T01:02:58;-5.90;96.00
814;DHT22;389;48.710;9.392;2022-12-18T01:05:25;-6.00;95.90
814;DHT22;389;48.710;9.392;2022-12-18T01:07:51;-6.00;95.90
814;DHT22;389;48.710;9.392;2022-12-18T01:10:16;-6.10;95.90
814;DHT22;389;48.710;9.392;2022-12-18T01:12:42;-6.10;95.90
814;DHT22;389;48.710;9.392;2022-12-18T01:15:09;-6.20;95.90
814;DHT22;389;48.710;9.392;2022-12-18T01:17:35;-6.20;95.90
814;DHT22;389;48.710;9.392;2022-12-18T01:20:00;-6.20;96.00
814;DHT22;389;48.710;9.392;2022-12-18T01:22:26;-6.20;95.90
814;DHT22;389;48.710;9.392;2022-12-18T01:24:51;-6.30;95.90
814;DHT22;389;48.710;9.392;2022-12-18T01:27:17;-6.30;95.90
814;DHT22;389;48.710;9.392;2022-12-18T01:29:43;-6.30;95.80
814;DHT22;389;48.710;9.392;2022-12-18T01:32:08;-6.30;95.70
814;DHT22;389;48.710;9.392;2022-12-18T01:34:36;-6.40;95.60
814;DHT22;389;48.710;9.392;2022-12-18T01:37:03;-6.40;95.50
814;DHT22;389;48.710;9.392;2022-12-18T01:39:29;-6.40;95.50
814;DHT22;389;48.710;9.392;2022-12-18T01:41:55;-6.40;95.50
814;DHT22;389;48.710;9.392;2022-12-18T01:44:59;-6.50;95.40
814;DHT22;389;48.710;9.392;2022-12-18T01:47:41;-6.50;95.40
814;DHT22;389;48.710;9.392;2022-12-18T01:52:43;-6.50;95.30
814;DHT22;389;48.710;9.392;2022-12-18T01:55:11;-6.60;95.30
814;DHT22;389;48.710;9.392;2022-12-18T01:57:38;-6.60;95.30
814;DHT22;389;48.710;9.392;2022-12-18T02:00:14;-6.60;95.30
814;DHT22;389;48.710;9.392;2022-12-18T02:02:41;-6.70;95.20
814;DHT22;389;48.710;9.392;2022-12-18T02:05:07;-6.70;95.20
814;DHT22;389;48.710;9.392;2022-12-18T02:07:42;-6.80;95.20
814;DHT22;389;48.710;9.392;2022-12-18T02:10:27;-6.80;95.20
814;DHT22;389;48.710;9.392;2022-12-18T02:15:45;-6.80;95.20
814;DHT22;389;48.710;9.392;2022-12-18T02:18:21;-6.80;95.20
814;DHT22;389;48.710;9.392;2022-12-18T02:20:55;-6.90;95.20
814;DHT22;389;48.710;9.392;2022-12-18T02:23:43;-6.90;95.20
814;DHT22;389;48.710;9.392;2022-12-18T02:26:32;-6.80;95.30
814;DHT22;389;48.710;9.392;2022-12-18T02:29:13;-6.80;95.20
814;DHT22;389;48.710;9.392;2022-12-18T02:31:43;-6.90;95.10
814;DHT22;389;48.710;9.392;2022-12-18T02:34:11;-6.90;95.10
814;DHT22;389;48.710;9.392;2022-12-18T02:36:40;-6.90;95.00
814;DHT22;389;48.710;9.392;2022-12-18T02:39:10;-6.90;95.00
814;DHT22;389;48.710;9.392;2022-12-18T02:41:36;-6.90;94.90
814;DHT22;389;48.710;9.392;2022-12-18T02:44:09;-6.90;94.90
814;DHT22;389;48.710;9.392;2022-12-18T02:46:39;-6.90;94.90
814;DHT22;389;48.710;9.392;2022-12-18T02:49:32;-6.90;94.80
814;DHT22;389;48.710;9.392;2022-12-18T02:57:33;-7.10;94.60
814;DHT22;389;48.710;9.392;2022-12-18T03:00:08;-7.10;94.50
814;DHT22;389;48.710;9.392;2022-12-18T03:02:58;-7.20;94.40
814;DHT22;389;48.710;9.392;2022-12-18T03:05:31;-7.20;94.40
814;DHT22;389;48.710;9.392;2022-12-18T03:10:30;-7.30;94.20
814;DHT22;389;48.710;9.392;2022-12-18T03:13:09;-7.40;94.10
814;DHT22;389;48.710;9.392;2022-12-18T03:15:42;-7.40;94.10
814;DHT22;389;48.710;9.392;2022-12-18T03:18:25;-7.50;94.10
814;DHT22;389;48.710;9.392;2022-12-18T03:20:53;-7.60;94.00
814;DHT22;389;48.710;9.392;2022-12-18T03:23:25;-7.60;94.00
814;DHT22;389;48.710;9.392;2022-12-18T03:25:57;-7.70;93.90
814;DHT22;389;48.710;9.392;2022-12-18T03:28:24;-7.80;93.90
814;DHT22;389;48.710;9.392;2022-12-18T03:30:53;-7.80;93.80
814;DHT22;389;48.710;9.392;2022-12-18T03:34:03;-7.90;93.70
814;DHT22;389;48.710;9.392;2022-12-18T03:36:28;-8.00;93.70
814;DHT22;389;48.710;9.392;2022-12-18T03:38:53;-8.10;93.60
814;DHT22;389;48.710;9.392;2022-12-18T03:41:36;-8.10;93.60
814;DHT22;389;48.710;9.392;2022-12-18T03:44:20;-8.20;93.50
814;DHT22;389;48.710;9.392;2022-12-18T03:54:30;-8.40;93.50
814;DHT22;389;48.710;9.392;2022-12-18T03:57:12;-8.40;93.50
814;DHT22;389;48.710;9.392;2022-12-18T03:59:39;-8.50;93.70
814;DHT22;389;48.710;9.392;2022-12-18T04:02:07;-8.60;93.30
814;DHT22;389;48.710;9.392;2022-12-18T04:04:34;-8.70;93.30
814;DHT22;389;48.710;9.392;2022-12-18T04:07:02;-8.70;93.30
814;DHT22;389;48.710;9.392;2022-12-18T04:09:28;-8.80;93.20
814;DHT22;389;48.710;9.392;2022-12-18T04:11:55;-8.80;93.30
814;DHT22;389;48.710;9.392;2022-12-18T04:14:20;-8.90;93.20
814;DHT22;389;48.710;9.392;2022-12-18T04:16:46;-9.00;93.20
814;DHT22;389;48.710;9.392;2022-12-18T04:19:12;-9.10;93.20
814;DHT22;389;48.710;9.392;2022-12-18T04:21:37;-9.10;93.40
814;DHT22;389;48.710;9.392;2022-12-18T04:24:03;-9.20;93.40
814;DHT22;389;48.710;9.392;2022-12-18T04:26:29;-9.20;93.50
814;DHT22;389;48.710;9.392;2022-12-18T04:28:54;-9.20;93.50
814;DHT22;389;48.710;9.392;2022-12-18T04:31:20;-9.20;93.50
814;DHT22;389;48.710;9.392;2022-12-18T04:33:45;-9.20;93.60
814;DHT22;389;48.710;9.392;2022-12-18T04:36:11;-9.30;93.50
814;DHT22;389;48.710;9.392;2022-12-18T04:38:37;-9.30;93.60
814;DHT22;389;48.710;9.392;2022-12-18T04:41:03;-9.30;93.60
814;DHT22;389;48.710;9.392;2022-12-18T04:43:29;-9.30;93.60
814;DHT22;389;48.710;9.392;2022-12-18T04:46:04;-9.30;93.70
814;DHT22;389;48.710;9.392;2022-12-18T04:48:30;-9.30;93.70
814;DHT22;389;48.710;9.392;2022-12-18T04:53:24;-9.20;93.90
814;DHT22;389;48.710;9.392;2022-12-18T04:55:49;-9.20;93.90
814;DHT22;389;48.710;9.392;2022-12-18T04:58:15;-9.20;93.80
814;DHT22;389;48.710;9.392;2022-12-18T05:00:41;-9.20;94.00
814;DHT22;389;48.710;9.392;2022-12-18T05:03:06;-9.20;93.70
814;DHT22;389;48.710;9.392;2022-12-18T05:05:34;-9.30;93.50
814;DHT22;389;48.710;9.392;2022-12-18T05:08:00;-9.30;93.60
814;DHT22;389;48.710;9.392;2022-12-18T05:10:26;-9.40;93.20
814;DHT22;389;48.710;9.392;2022-12-18T05:12:51;-9.50;93.10
814;DHT22;389;48.710;9.392;2022-12-18T05:15:24;-9.50;93.30
814;DHT22;389;48.710;9.392;2022-12-18T05:17:49;-9.60;93.00
814;DHT22;389;48.710;9.392;2022-12-18T05:20:15;-9.60;92.90
814;DHT22;389;48.710;9.392;2022-12-18T05:22:40;-9.70;92.90
814;DHT22;389;48.710;9.392;2022-12-18T05:25:09;-9.70;92.80
814;DHT22;389;48.710;9.392;2022-12-18T05:27:34;-9.80;92.70
814;DHT22;389;48.710;9.392;2022-12-18T05:30:00;-9.80;92.70
814;DHT22;389;48.710;9.392;2022-12-18T05:32:25;-9.90;92.60
814;DHT22;389;48.710;9.392;2022-12-18T05:34:51;-9.90;92.60
814;DHT22;389;48.710;9.392;2022-12-18T05:37:16;-10.00;92.50
814;DHT22;389;48.710;9.392;2022-12-18T05:39:43;-10.00;92.60
814;DHT22;389;48.710;9.392;2022-12-18T05:42:08;-10.00;92.60
814;DHT22;389;48.710;9.392;2022-12-18T05:44:34;-10.00;92.60
814;DHT22;389;48.710;9.392;2022-12-18T05:46:59;-10.10;92.50
814;DHT22;389;48.710;9.392;2022-12-18T05:49:25;-10.10;92.60
814;DHT22;389;48.710;9.392;2022-12-18T05:51:50;-10.10;92.50
814;DHT22;389;48.710;9.392;2022-12-18T05:54:16;-10.20;92.50
814;DHT22;389;48.710;9.392;2022-12-18T05:56:42;-10.10;92.50
814;DHT22;389;48.710;9.392;2022-12-18T05:59:07;-10.30;92.40
814;DHT22;389;48.710;9.392;2022-12-18T06:01:33;-10.30;92.50
814;DHT22;389;48.710;9.392;2022-12-18T06:03:58;-10.40;92.50
814;DHT22;389;48.710;9.392;2022-12-18T06:06:26;-10.40;92.50
814;DHT22;389;48.710;9.392;2022-12-18T06:08:53;-10.40;92.60
814;DHT22;389;48.710;9.392;2022-12-18T06:11:22;-10.40;92.60
814;DHT22;389;48.710;9.392;2022-12-18T06:13:52;-10.40;92.60
814;DHT22;389;48.710;9.392;2022-12-18T06:16:18;-10.40;92.60
814;DHT22;389;48.710;9.392;2022-12-18T06:18:44;-10.30;92.70
814;DHT22;389;48.710;9.392;2022-12-18T06:21:09;-10.40;92.60
814;DHT22;389;48.710;9.392;2022-12-18T06:23:35;-10.50;92.50
814;DHT22;389;48.710;9.392;2022-12-18T06:26:07;-10.50;92.50
814;DHT22;389;48.710;9.392;2022-12-18T06:28:36;-10.50;92.50
814;DHT22;389;48.710;9.392;2022-12-18T06:31:05;-10.50;92.50
814;DHT22;389;48.710;9.392;2022-12-18T06:33:31;-10.60;92.40
814;DHT22;389;48.710;9.392;2022-12-18T06:36:05;-10.60;92.40
814;DHT22;389;48.710;9.392;2022-12-18T06:38:32;-10.60;92.40
814;DHT22;389;48.710;9.392;2022-12-18T06:40:57;-10.60;92.40
814;DHT22;389;48.710;9.392;2022-12-18T06:43:23;-10.60;92.40
814;DHT22;389;48.710;9.392;2022-12-18T06:45:48;-10.70;92.40
814;DHT22;389;48.710;9.392;2022-12-18T06:48:21;-10.70;92.30
814;DHT22;389;48.710;9.392;2022-12-18T06:50:47;-10.80;92.30
814;DHT22;389;48.710;9.392;2022-12-18T06:53:12;-10.80;92.30
814;DHT22;389;48.710;9.392;2022-12-18T06:55:38;-10.80;92.40
814;DHT22;389;48.710;9.392;2022-12-18T06:58:03;-10.80;92.40
814;DHT22;389;48.710;9.392;2022-12-18T07:00:29;-10.80;92.50
814;DHT22;389;48.710;9.392;2022-12-18T07:02:55;-10.80;92.50
814;DHT22;389;48.710;9.392;2022-12-18T07:05:20;-10.80;92.60
814;DHT22;389;48.710;9.392;2022-12-18T07:07:46;-10.60;92.70
814;DHT22;389;48.710;9.392;2022-12-18T07:10:11;-10.70;92.60
814;DHT22;389;48.710;9.392;2022-12-18T07:12:37;-10.60;92.70
814;DHT22;389;48.710;9.392;2022-12-18T07:15:03;-10.80;92.60
814;DHT22;389;48.710;9.392;2022-12-18T07:17:29;-10.70;92.70
814;DHT22;389;48.710;9.392;2022-12-18T07:19:54;-10.60;92.80
814;DHT22;389;48.710;9.392;2022-12-18T07:22:20;-10.70;92.70
814;DHT22;389;48.710;9.392;2022-12-18T07:24:46;-10.70;92.70
814;DHT22;389;48.710;9.392;2022-12-18T07:27:11;-10.60;92.80
814;DHT22;389;48.710;9.392;2022-12-18T07:29:37;-10.50;92.80
814;DHT22;389;48.710;9.392;2022-12-18T07:32:02;-10.60;92.80
814;DHT22;389;48.710;9.392;2022-12-18T07:34:28;-10.60;92.70
814;DHT22;389;48.710;9.392;2022-12-18T07:36:53;-10.60;92.70
814;DHT22;389;48.710;9.392;2022-12-18T07:39:19;-10.50;92.80
814;DHT22;389;48.710;9.392;2022-12-18T07:41:45;-10.50;92.70
814;DHT22;389;48.710;9.392;2022-12-18T07:44:33;-10.50;92.80
814;DHT22;389;48.710;9.392;2022-12-18T07:46:58;-10.30;92.90
814;DHT22;389;48.710;9.392;2022-12-18T07:49:24;-10.40;92.90
814;DHT22;389;48.710;9.392;2022-12-18T07:51:50;-10.50;92.80
814;DHT22;389;48.710;9.392;2022-12-18T07:54:15;-10.40;92.90
814;DHT22;389;48.710;9.392;2022-12-18T07:56:41;-10.30;92.90
814;DHT22;389;48.710;9.392;2022-12-18T07:59:07;-10.40;92.90
814;DHT22;389;48.710;9.392;2022-12-18T08:01:33;-10.30;92.90
814;DHT22;389;48.710;9.392;2022-12-18T08:03:59;-10.30;92.90
814;DHT22;389;48.710;9.392;2022-12-18T08:06:25;-10.20;92.90
814;DHT22;389;48.710;9.392;2022-12-18T08:08:54;-10.20;92.80
814;DHT22;389;48.710;9.392;2022-12-18T08:11:21;-10.10;92.90
814;DHT22;389;48.710;9.392;2022-12-18T08:13:47;-10.10;92.90
814;DHT22;389;48.710;9.392;2022-12-18T08:16:13;-10.00;93.00
814;DHT22;389;48.710;9.392;2022-12-18T08:18:39;-10.00;93.00
814;DHT22;389;48.710;9.392;2022-12-18T08:21:09;-9.90;93.00
814;DHT22;389;48.710;9.392;2022-12-18T08:23:35;-9.90;93.00
814;DHT22;389;48.710;9.392;2022-12-18T08:26:01;-9.80;93.10
814;DHT22;389;48.710;9.392;2022-12-18T08:28:27;-9.70;93.10
814;DHT22;389;48.710;9.392;2022-12-18T08:30:52;-9.60;93.10
814;DHT22;389;48.710;9.392;2022-12-18T08:33:18;-9.60;93.10
814;DHT22;389;48.710;9.392;2022-12-18T08:35:43;-9.50;93.10
814;DHT22;389;48.710;9.392;2022-12-18T08:38:09;-9.40;93.20
814;DHT22;389;48.710;9.392;2022-12-18T08:40:35;-9.30;93.20
814;DHT22;389;48.710;9.392;2022-12-18T08:43:00;-9.30;93.10
814;DHT22;389;48.710;9.392;2022-12-18T08:45:44;-9.20;93.20
814;DHT22;389;48.710;9.392;2022-12-18T08:48:10;-9.10;93.20
814;DHT22;389;48.710;9.392;2022-12-18T08:50:35;-9.00;93.20
814;DHT22;389;48.710;9.392;2022-12-18T08:53:01;-8.90;93.20
814;DHT22;389;48.710;9.392;2022-12-18T08:55:27;-8.80;93.30
814;DHT22;389;48.710;9.392;2022-12-18T08:57:53;-8.70;93.30
814;DHT22;389;48.710;9.392;2022-12-18T09:00:19;-8.60;93.30
814;DHT22;389;48.710;9.392;2022-12-18T09:02:45;-8.60;93.20
814;DHT22;389;48.710;9.392;2022-12-18T09:05:10;-8.50;93.20
814;DHT22;389;48.710;9.392;2022-12-18T09:07:36;-8.40;93.30
814;DHT22;389;48.710;9.392;2022-12-18T09:10:02;-8.30;93.60
814;DHT22;389;48.710;9.392;2022-12-18T09:12:27;-8.20;93.30
814;DHT22;389;48.710;9.392;2022-12-18T09:14:53;-8.10;93.30
814;DHT22;389;48.710;9.392;2022-12-18T09:17:19;-8.00;93.30
814;DHT22;389;48.710;9.392;2022-12-18T09:19:44;-7.90;93.20
814;DHT22;389;48.710;9.392;2022-12-18T09:22:10;-7.90;93.20
814;DHT22;389;48.710;9.392;2022-12-18T09:24:35;-7.80;93.20
814;DHT22;389;48.710;9.392;2022-12-18T09:27:01;-7.70;93.20
814;DHT22;389;48.710;9.392;2022-12-18T09:29:26;-7.60;93.20
814;DHT22;389;48.710;9.392;2022-12-18T09:31:52;-7.50;93.10
814;DHT22;389;48.710;9.392;2022-12-18T09:34:18;-7.30;93.10
814;DHT22;389;48.710;9.392;2022-12-18T09:36:46;-7.20;93.10
814;DHT22;389;48.710;9.392;2022-12-18T09:39:12;-7.10;93.00
814;DHT22;389;48.710;9.392;2022-12-18T09:41:53;-7.00;92.90
814;DHT22;389;48.710;9.392;2022-12-18T09:44:23;-7.00;92.90
814;DHT22;389;48.710;9.392;2022-12-18T09:47:14;-6.90;92.90
814;DHT22;389;48.710;9.392;2022-12-18T09:49:47;-6.80;93.00
814;DHT22;389;48.710;9.392;2022-12-18T09:52:35;-6.70;92.90
814;DHT22;389;48.710;9.392;2022-12-18T09:55:15;-6.60;92.90
814;DHT22;389;48.710;9.392;2022-12-18T09:57:57;-6.50;93.00
814;DHT22;389;48.710;9.392;2022-12-18T10:00:26;-6.40;92.90
814;DHT22;389;48.710;9.392;2022-12-18T10:02:59;-6.30;93.00
814;DHT22;389;48.710;9.392;2022-12-18T10:10:52;-6.10;92.90
814;DHT22;389;48.710;9.392;2022-12-18T10:13:42;-6.00;92.90
814;DHT22;389;48.710;9.392;2022-12-18T10:16:34;-5.90;92.90
814;DHT22;389;48.710;9.392;2022-12-18T10:19:11;-5.80;92.80
814;DHT22;389;48.710;9.392;2022-12-18T10:24:26;-5.60;92.80
814;DHT22;389;48.710;9.392;2022-12-18T10:27:07;-5.50;92.80
814;DHT22;389;48.710;9.392;2022-12-18T10:29:34;-5.50;92.70
814;DHT22;389;48.710;9.392;2022-12-18T10:32:00;-5.40;92.70
814;DHT22;389;48.710;9.392;2022-12-18T10:34:26;-5.30;92.70
814;DHT22;389;48.710;9.392;2022-12-18T10:36:51;-5.20;92.80
814;DHT22;389;48.710;9.392;2022-12-18T10:39:22;-5.10;92.80
814;DHT22;389;48.710;9.392;2022-12-18T10:41:48;-5.00;92.90
814;DHT22;389;48.710;9.392;2022-12-18T10:46:54;-4.70;93.00
814;DHT22;389;48.710;9.392;2022-12-18T10:49:22;-4.60;93.10
814;DHT22;389;48.710;9.392;2022-12-18T10:51:48;-4.50;93.20
814;DHT22;389;48.710;9.392;2022-12-18T10:54:18;-4.40;93.10
814;DHT22;389;48.710;9.392;2022-12-18T10:56:45;-4.30;93.00
814;DHT22;389;48.710;9.392;2022-12-18T10:59:13;-4.20;92.90
814;DHT22;389;48.710;9.392;2022-12-18T11:01:48;-4.10;92.70
814;DHT22;389;48.710;9.392;2022-12-18T11:04:22;-4.10;92.70
814;DHT22;389;48.710;9.392;2022-12-18T11:07:07;-4.20;92.80
814;DHT22;389;48.710;9.392;2022-12-18T11:09:38;-4.00;92.70
814;DHT22;389;48.710;9.392;2022-12-18T11:14:47;-3.80;92.80
814;DHT22;389;48.710;9.392;2022-12-18T11:17:27;-3.70;92.90
814;DHT22;389;48.710;9.392;2022-12-18T11:19:58;-3.50;93.10
814;DHT22;389;48.710;9.392;2022-12-18T11:22:33;-3.40;93.20
814;DHT22;389;48.710;9.392;2022-12-18T11:27:28;-3.10;93.30
814;DHT22;389;48.710;9.392;2022-12-18T11:44:00;-2.10;93.20
814;DHT22;389;48.710;9.392;2022-12-18T11:46:45;-1.90;93.10
814;DHT22;389;48.710;9.392;2022-12-18T11:49:41;-1.80;93.00
814;DHT22;389;48.710;9.392;2022-12-18T11:55:00;-1.60;92.70
814;DHT22;389;48.710;9.392;2022-12-18T11:57:32;-1.60;92.50
814;DHT22;389;48.710;9.392;2022-12-18T12:03:19;-1.40;92.30
814;DHT22;389;48.710;9.392;2022-12-18T12:11:35;-1.30;92.10
814;DHT22;389;48.710;9.392;2022-12-18T12:25:39;-1.00;92.20
814;DHT22;389;48.710;9.392;2022-12-18T12:40:28;-0.60;92.40
814;DHT22;389;48.710;9.392;2022-12-18T12:42:58;-0.50;92.30
814;DHT22;389;48.710;9.392;2022-12-18T12:45:49;-0.50;92.20
814;DHT22;389;48.710;9.392;2022-12-18T12:51:16;-0.30;92.10
814;DHT22;389;48.710;9.392;2022-12-18T12:53:43;-0.20;92.00
814;DHT22;389;48.710;9.392;2022-12-18T12:56:11;-0.10;92.00
814;DHT22;389;48.710;9.392;2022-12-18T13:04:34;0.10;91.90
814;DHT22;389;48.710;9.392;2022-12-18T13:07:08;0.20;91.80
814;DHT22;389;48.710;9.392;2022-12-18T13:13:12;0.20;91.60
814;DHT22;389;48.710;9.392;2022-12-18T13:15:44;0.30;91.60
814;DHT22;389;48.710;9.392;2022-12-18T13:20:47;0.40;91.70
814;DHT22;389;48.710;9.392;2022-12-18T13:23:34;0.40;91.50
814;DHT22;389;48.710;9.392;2022-12-18T13:31:13;0.50;91.50
814;DHT22;389;48.710;9.392;2022-12-18T13:33:43;0.60;91.60
814;DHT22;389;48.710;9.392;2022-12-18T13:36:29;0.60;91.50
814;DHT22;389;48.710;9.392;2022-12-18T13:41:52;0.80;91.60
814;DHT22;389;48.710;9.392;2022-12-18T13:44:32;0.80;91.50
814;DHT22;389;48.710;9.392;2022-12-18T13:49:58;1.00;91.50
814;DHT22;389;48.710;9.392;2022-12-18T13:52:27;1.00;91.40
814;DHT22;389;48.710;9.392;2022-12-18T13:54:59;1.00;91.30
814;DHT22;389;48.710;9.392;2022-12-18T14:02:49;1.10;91.10
814;DHT22;389;48.710;9.392;2022-12-18T14:05:38;1.10;91.00
814;DHT22;389;48.710;9.392;2022-12-18T14:08:14;1.10;90.90
814;DHT22;389;48.710;9.392;2022-12-18T14:10:56;1.10;90.90
814;DHT22;389;48.710;9.392;2022-12-18T14:13:36;1.10;90.80
814;DHT22;389;48.710;9.392;2022-12-18T14:16:57;1.00;90.90
814;DHT22;389;48.710;9.392;2022-12-18T14:19:37;1.00;91.00
814;DHT22;389;48.710;9.392;2022-12-18T14:25:54;0.80;91.00
814;DHT22;389;48.710;9.392;2022-12-18T14:28:42;0.50;91.00
814;DHT22;389;48.710;9.392;2022-12-18T14:31:38;0.70;91.20
814;DHT22;389;48.710;9.392;2022-12-18T14:34:15;0.50;91.20
814;DHT22;389;48.710;9.392;2022-12-18T14:37:22;0.50;91.30
814;DHT22;389;48.710;9.392;2022-12-18T14:40:43;0.20;91.30
814;DHT22;389;48.710;9.392;2022-12-18T15:02:19;-0.60;91.60
814;DHT22;389;48.710;9.392;2022-12-18T15:04:46;-0.80;91.80
814;DHT22;389;48.710;9.392;2022-12-18T15:07:23;-0.90;92.50
814;DHT22;389;48.710;9.392;2022-12-18T15:10:11;-1.10;92.60
814;DHT22;389;48.710;9.392;2022-12-18T15:12:43;-1.10;92.90
814;DHT22;389;48.710;9.392;2022-12-18T15:18:11;-1.30;93.20
814;DHT22;389;48.710;9.392;2022-12-18T15:20:49;-1.40;93.40
814;DHT22;389;48.710;9.392;2022-12-18T15:23:21;-1.40;93.60
814;DHT22;389;48.710;9.392;2022-12-18T15:25:57;-1.50;93.80
814;DHT22;389;48.710;9.392;2022-12-18T15:33:42;-1.60;94.20
814;DHT22;389;48.710;9.392;2022-12-18T15:36:12;-1.70;94.30
814;DHT22;389;48.710;9.392;2022-12-18T15:38:38;-1.70;94.30
814;DHT22;389;48.710;9.392;2022-12-18T15:41:04;-1.80;94.40
814;DHT22;389;48.710;9.392;2022-12-18T15:43:29;-1.80;94.50
814;DHT22;389;48.710;9.392;2022-12-18T15:46:16;-1.80;94.70
814;DHT22;389;48.710;9.392;2022-12-18T15:48:50;-1.90;94.70
814;DHT22;389;48.710;9.392;2022-12-18T15:51:29;-1.90;94.80
814;DHT22;389;48.710;9.392;2022-12-18T15:53:58;-2.00;94.80
814;DHT22;389;48.710;9.392;2022-12-18T15:56:25;-2.00;94.90
814;DHT22;389;48.710;9.392;2022-12-18T15:59:15;-2.00;95.00
814;DHT22;389;48.710;9.392;2022-12-18T16:01:42;-2.10;95.00
814;DHT22;389;48.710;9.392;2022-12-18T16:04:19;-2.10;95.00
814;DHT22;389;48.710;9.392;2022-12-18T16:06:50;-2.10;95.10
814;DHT22;389;48.710;9.392;2022-12-18T16:09:17;-2.20;95.10
814;DHT22;389;48.710;9.392;2022-12-18T16:11:44;-2.20;95.20
814;DHT22;389;48.710;9.392;2022-12-18T16:14:20;-2.20;95.20
814;DHT22;389;48.710;9.392;2022-12-18T16:16:47;-2.20;95.30
814;DHT22;389;48.710;9.392;2022-12-18T16:19:14;-2.30;95.30
814;DHT22;389;48.710;9.392;2022-12-18T16:21:45;-2.30;95.40
814;DHT22;389;48.710;9.392;2022-12-18T16:24:20;-2.30;95.40
814;DHT22;389;48.710;9.392;2022-12-18T16:26:49;-2.30;95.40
814;DHT22;389;48.710;9.392;2022-12-18T16:29:16;-2.40;95.50
814;DHT22;389;48.710;9.392;2022-12-18T16:31:42;-2.40;95.50
814;DHT22;389;48.710;9.392;2022-12-18T16:34:22;-2.40;95.60
814;DHT22;389;48.710;9.392;2022-12-18T16:36:52;-2.40;95.60
814;DHT22;389;48.710;9.392;2022-12-18T16:39:19;-2.40;95.60
814;DHT22;389;48.710;9.392;2022-12-18T16:41:49;-2.40;95.70
814;DHT22;389;48.710;9.392;2022-12-18T16:44:20;-2.40;95.70
814;DHT22;389;48.710;9.392;2022-12-18T16:46:46;-2.40;95.70
814;DHT22;389;48.710;9.392;2022-12-18T16:49:17;-2.40;95.70
814;DHT22;389;48.710;9.392;2022-12-18T16:51:43;-2.40;95.70
814;DHT22;389;48.710;9.392;2022-12-18T16:54:10;-2.40;95.70
814;DHT22;389;48.710;9.392;2022-12-18T16:56:36;-2.40;95.70
814;DHT22;389;48.710;9.392;2022-12-18T16:59:02;-2.40;95.70
814;DHT22;389;48.710;9.392;2022-12-18T17:01:29;-2.40;95.70
814;DHT22;389;48.710;9.392;2022-12-18T17:04:01;-2.40;95.70
814;DHT22;389;48.710;9.392;2022-12-18T17:06:30;-2.20;95.80
814;DHT22;389;48.710;9.392;2022-12-18T17:09:01;-2.30;95.70
814;DHT22;389;48.710;9.392;2022-12-18T17:11:32;-2.30;95.70
814;DHT22;389;48.710;9.392;2022-12-18T17:14:05;-2.30;95.70
814;DHT22;389;48.710;9.392;2022-12-18T17:16:37;-2.30;95.70
814;DHT22;389;48.710;9.392;2022-12-18T17:19:03;-2.20;95.70
814;DHT22;389;48.710;9.392;2022-12-18T17:21:32;-2.30;95.70
814;DHT22;389;48.710;9.392;2022-12-18T17:24:01;-2.30;95.70
814;DHT22;389;48.710;9.392;2022-12-18T17:26:28;-2.30;95.70
814;DHT22;389;48.710;9.392;2022-12-18T17:28:56;-2.20;95.60
814;DHT22;389;48.710;9.392;2022-12-18T17:31:27;-2.20;95.50
814;DHT22;389;48.710;9.392;2022-12-18T17:33:53;-2.10;95.50
814;DHT22;389;48.710;9.392;2022-12-18T17:36:20;-2.10;95.50
814;DHT22;389;48.710;9.392;2022-12-18T17:38:54;-2.10;95.50
814;DHT22;389;48.710;9.392;2022-12-18T17:41:21;-2.10;95.40
814;DHT22;389;48.710;9.392;2022-12-18T17:43:51;-2.00;95.30
814;DHT22;389;48.710;9.392;2022-12-18T17:46:18;-2.00;95.20
814;DHT22;389;48.710;9.392;2022-12-18T17:48:44;-2.00;95.20
814;DHT22;389;48.710;9.392;2022-12-18T17:51:12;-1.90;95.20
814;DHT22;389;48.710;9.392;2022-12-18T17:53:39;-1.90;95.00
814;DHT22;389;48.710;9.392;2022-12-18T17:56:05;-1.90;95.00
814;DHT22;389;48.710;9.392;2022-12-18T17:58:34;-1.80;95.00
814;DHT22;389;48.710;9.392;2022-12-18T18:03:28;-1.80;94.90
814;DHT22;389;48.710;9.392;2022-12-18T18:05:55;-1.80;94.80
814;DHT22;389;48.710;9.392;2022-12-18T18:08:21;-1.70;94.80
814;DHT22;389;48.710;9.392;2022-12-18T18:10:47;-1.70;94.70
814;DHT22;389;48.710;9.392;2022-12-18T18:13:22;-1.70;94.60
814;DHT22;389;48.710;9.392;2022-12-18T18:16:08;-1.70;94.50
814;DHT22;389;48.710;9.392;2022-12-18T18:18:33;-1.70;94.50
814;DHT22;389;48.710;9.392;2022-12-18T18:21:04;-1.70;94.50
814;DHT22;389;48.710;9.392;2022-12-18T18:23:31;-1.60;94.50
814;DHT22;389;48.710;9.392;2022-12-18T18:26:04;-1.70;94.40
814;DHT22;389;48.710;9.392;2022-12-18T18:28:31;-1.70;94.40
814;DHT22;389;48.710;9.392;2022-12-18T18:30:56;-1.70;94.70
814;DHT22;389;48.710;9.392;2022-12-18T18:33:22;-1.70;94.30
814;DHT22;389;48.710;9.392;2022-12-18T18:35:48;-1.60;94.30
814;DHT22;389;48.710;9.392;2022-12-18T18:38:14;-1.60;94.30
814;DHT22;389;48.710;9.392;2022-12-18T18:40:39;-1.60;94.30
814;DHT22;389;48.710;9.392;2022-12-18T18:43:05;-1.60;94.20
814;DHT22;389;48.710;9.392;2022-12-18T18:45:30;-1.60;94.20
814;DHT22;389;48.710;9.392;2022-12-18T18:47:56;-1.60;94.20
814;DHT22;389;48.710;9.392;2022-12-18T18:50:23;-1.60;94.20
814;DHT22;389;48.710;9.392;2022-12-18T18:52:50;-1.60;94.10
814;DHT22;389;48.710;9.392;2022-12-18T18:55:15;-1.60;94.20
814;DHT22;389;48.710;9.392;2022-12-18T18:57:41;-1.60;94.10
814;DHT22;389;48.710;9.392;2022-12-18T19:00:07;-1.60;94.10
814;DHT22;389;48.710;9.392;2022-12-18T19:02:34;-1.50;94.20
814;DHT22;389;48.710;9.392;2022-12-18T19:04:59;-1.50;94.20
814;DHT22;389;48.710;9.392;2022-12-18T19:07:25;-1.50;94.20
814;DHT22;389;48.710;9.392;2022-12-18T19:09:50;-1.50;94.20
814;DHT22;389;48.710;9.392;2022-12-18T19:12:18;-1.50;94.10
814;DHT22;389;48.710;9.392;2022-12-18T19:15:03;-1.50;94.20
814;DHT22;389;48.710;9.392;2022-12-18T19:17:29;-1.40;94.20
814;DHT22;389;48.710;9.392;2022-12-18T19:19:54;-1.50;94.10
814;DHT22;389;48.710;9.392;2022-12-18T19:22:20;-1.40;94.20
814;DHT22;389;48.710;9.392;2022-12-18T19:24:46;-1.40;94.10